Time;durP1;ratioP1;P1;durP2;ratioP2;P2;SDS_P1;SDS_P2;PMS_P1;PMS_P2;Temp;Humidity;BMP_temperature;BMP_pressure;BME280_temperature;BME280_humidity;BME280_pressure;Samples;Min_cycle;Max_cycle;Signal;HPM_P1;HPM_P2
2023/01/28 00:00:05;;;;;;;1.48;0.57;;;19.50;50.60;;;;;;5033820;28;20082;-61
2023/01/28 00:02:32;;;;;;;0.60;0.38;;;19.50;50.60;;;;;;5032148;28;20049;-60
2023/01/28 00:04:58;;;;;;;1.02;0.47;;;19.50;50.60;;;;;;5032132;28;20517;-61
2023/01/28 00:07:23;;;;;;;1.15;0.60;;;19.40;50.50;;;;;;5033976;28;20071;-60
2023/01/28 00:09:49;;;;;;;1.52;0.60;;;19.40;50.50;;;;;;5032709;28;20045;-61
2023/01/28 00:12:15;;;;;;;0.77;0.40;;;19.40;50.50;;;;;;5033977;28;20064;-61
2023/01/28 00:14:40;;;;;;;0.93;0.50;;;19.40;50.50;;;;;;5032503;28;20053;-61
2023/01/28 00:17:06;;;;;;;1.48;0.52;;;19.40;50.50;;;;;;5032520;28;20905;-60
2023/01/28 00:19:31;;;;;;;1.00;0.50;;;19.40;50.60;;;;;;5032057;28;20405;-61
2023/01/28 00:21:57;;;;;;;1.17;0.65;;;19.40;50.50;;;;;;5033413;28;20049;-61
2023/01/28 00:24:23;;;;;;;1.17;0.50;;;19.40;50.50;;;;;;5033006;28;20042;-61
2023/01/28 00:26:48;;;;;;;1.52;0.50;;;19.40;50.50;;;;;;5033404;28;20045;-60
2023/01/28 00:29:14;;;;;;;1.13;0.40;;;19.30;50.40;;;;;;5035258;28;20042;-60
2023/01/28 00:31:40;;;;;;;1.38;0.50;;;19.30;50.40;;;;;;5046963;28;20077;-60
2023/01/28 00:34:05;;;;;;;0.50;0.38;;;19.40;50.50;;;;;;5052032;28;20088;-61
2023/01/28 00:36:32;;;;;;;1.10;0.68;;;19.30;50.50;;;;;;5053399;28;20106;-60
2023/01/28 00:38:58;;;;;;;1.35;0.60;;;19.30;50.50;;;;;;5052343;28;20037;-60
2023/01/28 00:41:25;;;;;;;1.02;0.50;;;19.30;50.40;;;;;;5051776;28;20047;-60
2023/01/28 00:43:51;;;;;;;1.45;0.50;;;19.30;50.40;;;;;;5052864;28;20535;-60
2023/01/28 00:46:17;;;;;;;1.83;0.45;;;19.30;50.50;;;;;;5052483;28;20041;-59
2023/01/28 00:48:43;;;;;;;2.33;0.50;;;19.30;50.50;;;;;;5053061;28;20037;-59
2023/01/28 00:51:09;;;;;;;1.25;0.60;;;19.30;50.60;;;;;;5050344;28;20085;-59
2023/01/28 00:53:36;;;;;;;0.93;0.45;;;19.30;50.60;;;;;;5053198;28;20048;-59
2023/01/28 00:56:02;;;;;;;1.52;0.73;;;19.20;50.50;;;;;;5051887;28;20040;-60
2023/01/28 00:58:28;;;;;;;1.17;0.60;;;19.20;50.50;;;;;;5050925;28;20045;-60
2023/01/28 01:00:53;;;;;;;0.77;0.43;;;19.20;50.50;;;;;;5052453;28;20093;-59
2023/01/28 01:03:19;;;;;;;1.58;0.45;;;19.20;50.50;;;;;;5052557;28;20072;-59
2023/01/28 01:05:45;;;;;;;1.08;0.60;;;19.20;50.40;;;;;;5050982;28;20106;-60
2023/01/28 01:08:11;;;;;;;0.98;0.43;;;19.20;50.40;;;;;;5052154;28;20481;-59
2023/01/28 01:10:37;;;;;;;1.02;0.40;;;19.20;50.40;;;;;;5052732;28;20033;-59
2023/01/28 01:13:04;;;;;;;0.85;0.50;;;19.20;50.40;;;;;;5051529;28;20183;-59
2023/01/28 01:15:29;;;;;;;0.73;0.50;;;19.20;50.50;;;;;;5052317;28;20535;-59
2023/01/28 01:17:56;;;;;;;1.10;0.50;;;19.10;50.40;;;;;;5051939;28;20084;-60
2023/01/28 01:20:23;;;;;;;1.55;0.43;;;19.20;50.50;;;;;;5050643;28;20477;-59
2023/01/28 01:22:48;;;;;;;0.90;0.50;;;19.10;50.50;;;;;;5052442;28;20056;-59
2023/01/28 01:25:15;;;;;;;2.15;0.50;;;19.10;50.50;;;;;;5050906;28;20029;-60
2023/01/28 01:27:41;;;;;;;1.20;0.50;;;19.10;50.50;;;;;;5051644;28;20056;-59
2023/01/28 01:30:08;;;;;;;1.00;0.40;;;19.10;50.40;;;;;;5051076;28;20095;-59
2023/01/28 01:32:34;;;;;;;0.93;0.45;;;19.10;50.50;;;;;;5051170;28;20477;-59
2023/01/28 01:35:00;;;;;;;1.42;0.50;;;19.10;50.50;;;;;;5051394;28;20045;-59
2023/01/28 01:37:26;;;;;;;0.75;0.40;;;19.10;50.50;;;;;;5052459;28;20044;-59
2023/01/28 01:39:51;;;;;;;0.70;0.40;;;19.10;51.20;;;;;;5052099;28;20049;-59
2023/01/28 01:42:17;;;;;;;1.02;0.55;;;19.10;50.50;;;;;;5050422;28;20053;-59
2023/01/28 01:44:58;;;;;;;0.80;0.50;;;19.00;50.40;;;;;;5051840;28;20411;-59
2023/01/28 01:47:56;;;;;;;0.98;0.40;;;19.00;50.50;;;;;;5051506;28;20088;-59
2023/01/28 01:50:22;;;;;;;;;;;19.00;50.50;;;;;;5050938;28;20045;-59
2023/01/28 01:52:48;;;;;;;1.42;0.50;;;19.00;50.50;;;;;;5050558;28;19924;-59
2023/01/28 01:55:16;;;;;;;0.77;0.30;;;19.00;50.60;;;;;;5050296;28;20041;-59
2023/01/28 01:57:42;;;;;;;0.73;0.30;;;19.00;50.60;;;;;;5051228;28;20041;-59
2023/01/28 02:00:08;;;;;;;0.75;0.40;;;19.00;50.50;;;;;;5051959;28;20048;-59
2023/01/28 02:03:00;;;;;;;1.05;0.40;;;19.00;50.60;;;;;;5051484;28;20043;-59
2023/01/28 02:05:26;;;;;;;1.25;0.30;;;19.00;50.50;;;;;;5050499;28;20065;-60
2023/01/28 02:08:19;;;;;;;0.80;0.40;;;18.90;50.50;;;;;;5051795;28;20143;-60
2023/01/28 02:10:41;;;;;;;1.02;0.40;;;18.90;50.50;;;;;;5050015;28;20417;-59
2023/01/28 02:13:07;;;;;;;1.15;0.45;;;18.90;50.50;;;;;;5051680;28;20075;-59
2023/01/28 02:15:32;;;;;;;0.82;0.40;;;18.90;50.50;;;;;;5050841;28;20057;-59
2023/01/28 02:17:58;;;;;;;0.60;0.40;;;18.90;50.40;;;;;;5051528;28;20411;-59
2023/01/28 02:20:55;;;;;;;1.50;0.45;;;18.90;50.40;;;;;;5052007;28;20037;-59
2023/01/28 02:23:33;;;;;;;0.80;0.40;;;18.90;50.30;;;;;;5050276;28;20041;-60
2023/01/28 02:26:26;;;;;;;0.82;0.30;;;18.90;50.40;;;;;;5050498;28;20056;-59
2023/01/28 02:29:18;;;;;;;1.00;0.40;;;18.90;50.40;;;;;;5051377;28;20128;-59
2023/01/28 02:32:06;;;;;;;0.57;0.40;;;18.90;50.40;;;;;;5050393;28;20146;-60
2023/01/28 02:34:46;;;;;;;0.80;0.40;;;18.90;50.40;;;;;;5054074;28;20077;-60
2023/01/28 02:37:20;;;;;;;0.70;0.30;;;18.90;50.40;;;;;;5053295;28;20501;-59
2023/01/28 02:39:55;;;;;;;0.93;0.43;;;18.90;50.40;;;;;;5037279;28;20517;-60
2023/01/28 02:42:24;;;;;;;0.50;0.40;;;18.90;50.40;;;;;;5054488;28;20095;-60
2023/01/28 02:44:49;;;;;;;0.50;0.40;;;18.90;50.40;;;;;;5054264;28;20034;-60
2023/01/28 02:50:01;;;;;;;0.68;0.40;;;18.90;50.50;;;;;;5055315;28;20084;-60
2023/01/28 02:55:40;;;;;;;0.65;0.40;;;18.90;50.50;;;;;;5054666;28;20456;-59
2023/01/28 02:58:12;;;;;;;0.30;0.30;;;18.90;50.50;;;;;;5054225;28;20051;-59
2023/01/28 03:00:40;;;;;;;1.40;0.50;;;18.90;50.50;;;;;;5034931;28;20488;-59
2023/01/28 03:03:13;;;;;;;0.90;0.40;;;18.90;50.50;;;;;;5033510;28;20124;-59
2023/01/28 03:06:02;;;;;;;0.35;0.30;;;18.90;50.50;;;;;;5033419;28;20045;-60
2023/01/28 03:39:08;;;;;;;0.30;0.30;;;18.90;50.50;;;;;;5003551;28;20049;-59
2023/01/28 03:41:33;;;;;;;0.65;0.30;;;18.90;50.50;;;;;;5034727;28;20381;-59
2023/01/28 03:46:43;;;;;;;0.20;0.20;;;19.00;50.50;;;;;;5054317;28;20052;-59
2023/01/28 03:49:08;;;;;;;0.40;0.30;;;19.00;50.50;;;;;;5053165;28;20041;-59
2023/01/28 03:51:34;;;;;;;0.30;0.30;;;19.00;50.50;;;;;;5052745;28;20393;-59
2023/01/28 03:53:59;;;;;;;0.30;0.30;;;19.00;50.50;;;;;;5053185;28;20041;-59
2023/01/28 03:56:27;;;;;;;1.00;0.40;;;19.00;50.50;;;;;;5054106;28;20053;-59
2023/01/28 03:58:54;;;;;;;0.82;0.40;;;19.00;50.50;;;;;;5053643;28;20116;-59
2023/01/28 04:01:20;;;;;;;0.30;0.30;;;19.00;50.50;;;;;;5052816;28;20489;-59
2023/01/28 04:03:45;;;;;;;0.95;0.40;;;19.00;50.50;;;;;;5053777;28;20577;-59
2023/01/28 04:06:11;;;;;;;1.42;0.30;;;19.00;50.50;;;;;;5052153;28;20128;-59
2023/01/28 04:08:36;;;;;;;0.22;0.20;;;19.00;50.50;;;;;;5053258;28;20032;-59
2023/01/28 04:11:14;;;;;;;0.85;0.30;;;19.00;50.40;;;;;;5053243;28;20102;-59
2023/01/28 04:13:43;;;;;;;0.68;0.40;;;19.00;50.40;;;;;;5053814;28;20091;-59
2023/01/28 04:16:09;;;;;;;0.40;0.30;;;19.00;50.40;;;;;;5052281;28;20057;-59
2023/01/28 04:18:35;;;;;;;0.22;0.20;;;19.00;50.40;;;;;;5053409;28;20509;-60
2023/01/28 04:21:00;;;;;;;0.40;0.20;;;19.10;50.40;;;;;;5051300;28;20041;-59
2023/01/28 04:23:28;;;;;;;0.85;0.20;;;19.10;50.40;;;;;;5052797;28;20401;-59
2023/01/28 04:25:54;;;;;;;0.75;0.30;;;19.10;50.40;;;;;;5053147;28;20049;-59
2023/01/28 04:28:19;;;;;;;0.40;0.30;;;19.10;50.40;;;;;;5053260;28;20056;-59
2023/01/28 04:30:45;;;;;;;0.77;0.35;;;19.10;50.40;;;;;;5052674;28;20033;-60
2023/01/28 04:33:10;;;;;;;0.30;0.30;;;19.10;50.40;;;;;;5052755;28;20130;-59
2023/01/28 04:35:36;;;;;;;0.68;0.40;;;19.10;50.40;;;;;;5053234;28;20087;-59
2023/01/28 04:38:01;;;;;;;0.30;0.30;;;19.20;50.40;;;;;;5051333;28;20049;-60
2023/01/28 04:40:27;;;;;;;0.50;0.30;;;19.20;50.40;;;;;;5053376;28;20051;-59
2023/01/28 04:42:53;;;;;;;0.63;0.20;;;19.20;50.40;;;;;;5053046;28;20041;-59
2023/01/28 04:45:19;;;;;;;0.25;0.20;;;19.20;50.40;;;;;;5052504;28;20069;-59
2023/01/28 04:47:45;;;;;;;0.40;0.20;;;19.20;50.30;;;;;;5052533;28;20563;-59
2023/01/28 04:50:10;;;;;;;0.45;0.20;;;19.20;50.40;;;;;;5051941;28;20040;-60
2023/01/28 04:52:36;;;;;;;0.22;0.20;;;19.20;50.40;;;;;;5051293;28;20048;-60
2023/01/28 04:55:02;;;;;;;0.32;0.20;;;19.20;50.40;;;;;;5051040;28;20041;-60
2023/01/28 04:57:27;;;;;;;0.45;0.30;;;19.30;50.40;;;;;;5051709;28;20434;-59
2023/01/28 04:59:53;;;;;;;0.32;0.22;;;19.30;50.40;;;;;;5052744;28;20087;-59
2023/01/28 05:02:18;;;;;;;0.47;0.30;;;19.30;50.40;;;;;;5050520;28;20411;-60
2023/01/28 05:04:44;;;;;;;0.43;0.20;;;19.30;50.40;;;;;;5051007;28;20040;-60
2023/01/28 05:07:10;;;;;;;0.47;0.30;;;19.30;50.30;;;;;;5051665;28;20048;-60
2023/01/28 05:09:35;;;;;;;0.65;0.20;;;19.30;50.30;;;;;;5052514;28;20076;-60
2023/01/28 05:12:01;;;;;;;0.52;0.30;;;19.30;50.30;;;;;;5051815;28;20076;-59
2023/01/28 05:14:27;;;;;;;0.43;0.30;;;19.30;51.00;;;;;;5050890;28;20485;-60
2023/01/28 05:16:52;;;;;;;0.82;0.30;;;19.30;50.30;;;;;;5052306;28;20044;-60
2023/01/28 05:19:18;;;;;;;0.40;0.22;;;19.30;50.30;;;;;;5050614;28;20057;-60
2023/01/28 05:21:43;;;;;;;0.60;0.30;;;19.30;50.30;;;;;;5052634;28;20037;-60
2023/01/28 05:24:09;;;;;;;0.35;0.20;;;19.40;50.30;;;;;;5052242;28;20052;-60
2023/01/28 05:26:36;;;;;;;0.63;0.20;;;19.40;50.30;;;;;;5051508;28;20542;-60
2023/01/28 05:29:02;;;;;;;0.28;0.28;;;19.40;50.30;;;;;;5051732;28;20052;-60
2023/01/28 05:31:27;;;;;;;0.35;0.20;;;19.40;50.30;;;;;;5051875;28;20052;-60
2023/01/28 05:33:53;;;;;;;0.40;0.20;;;19.40;50.20;;;;;;5050465;28;20041;-60
2023/01/28 05:36:18;;;;;;;0.50;0.20;;;19.40;50.20;;;;;;5067808;28;20484;-60
2023/01/28 05:38:44;;;;;;;0.20;0.20;;;19.40;50.20;;;;;;5052272;28;20033;-60
2023/01/28 05:41:10;;;;;;;0.65;0.20;;;19.50;50.30;;;;;;5051317;28;20575;-60
2023/01/28 05:43:35;;;;;;;0.20;0.20;;;19.50;50.20;;;;;;5052257;28;20040;-60
2023/01/28 05:46:01;;;;;;;1.25;0.20;;;19.50;50.30;;;;;;5051930;28;20136;-59
2023/01/28 05:48:26;;;;;;;0.38;0.35;;;19.50;50.20;;;;;;5051262;28;20057;-60
2023/01/28 05:50:52;;;;;;;0.30;0.20;;;19.50;50.20;;;;;;5051871;28;20041;-60
2023/01/28 05:53:17;;;;;;;0.70;0.30;;;19.50;50.20;;;;;;5052202;28;20064;-60
2023/01/28 05:55:47;;;;;;;0.40;0.30;;;19.50;50.10;;;;;;5066224;28;20369;-60
2023/01/28 05:58:12;;;;;;;0.20;0.20;;;19.50;50.10;;;;;;5072221;28;20070;-59
2023/01/28 06:00:38;;;;;;;0.20;0.20;;;19.50;50.10;;;;;;5070093;28;20044;-60
2023/01/28 06:03:03;;;;;;;0.65;0.30;;;19.60;50.10;;;;;;5072097;28;20040;-60
2023/01/28 06:05:29;;;;;;;0.40;0.30;;;19.60;50.20;;;;;;5070691;28;20500;-60
2023/01/28 06:07:54;;;;;;;0.50;0.20;;;19.60;50.10;;;;;;5051492;28;20563;-60
2023/01/28 06:10:20;;;;;;;0.63;0.20;;;19.60;50.20;;;;;;5056210;28;20041;-60
2023/01/28 06:12:46;;;;;;;0.40;0.28;;;19.60;50.10;;;;;;5056038;28;20045;-60
2023/01/28 06:15:11;;;;;;;0.93;0.30;;;19.60;50.10;;;;;;5054676;28;20096;-59
2023/01/28 06:17:37;;;;;;;0.30;0.20;;;19.60;50.10;;;;;;5055733;28;20096;-60
2023/01/28 06:20:03;;;;;;;0.63;0.30;;;19.60;50.10;;;;;;5055320;28;20053;-60
2023/01/28 06:22:28;;;;;;;0.13;0.13;;;19.60;50.10;;;;;;5054085;28;20473;-60
2023/01/28 06:24:54;;;;;;;0.77;0.30;;;19.60;50.10;;;;;;5055554;28;20045;-59
2023/01/28 06:27:19;;;;;;;0.20;0.20;;;19.70;50.10;;;;;;5055606;28;20157;-59
2023/01/28 06:29:45;;;;;;;0.20;0.13;;;19.70;50.10;;;;;;5053913;28;20048;-60
2023/01/28 06:32:11;;;;;;;0.20;0.20;;;19.70;50.10;;;;;;5054767;28;20055;-60
2023/01/28 06:34:36;;;;;;;0.30;0.20;;;19.70;50.10;;;;;;5055454;28;20482;-60
2023/01/28 06:37:03;;;;;;;0.25;0.20;;;19.70;50.10;;;;;;5053506;28;20117;-60
2023/01/28 06:39:30;;;;;;;0.98;0.30;;;19.70;50.10;;;;;;5055579;28;20048;-59
2023/01/28 06:41:56;;;;;;;0.73;0.22;;;19.70;50.80;;;;;;5054892;28;20116;-60
2023/01/28 06:44:22;;;;;;;0.35;0.20;;;19.70;50.10;;;;;;5054458;28;20133;-60
2023/01/28 06:46:48;;;;;;;0.32;0.20;;;19.70;50.00;;;;;;5054380;28;20128;-59
2023/01/28 06:49:13;;;;;;;0.40;0.20;;;19.70;50.00;;;;;;5055403;28;20119;-60
2023/01/28 06:51:39;;;;;;;0.20;0.20;;;19.70;50.00;;;;;;5053558;28;20139;-59
2023/01/28 06:54:04;;;;;;;0.55;0.10;;;19.80;50.00;;;;;;5055049;28;20384;-60
2023/01/28 06:56:30;;;;;;;0.20;0.20;;;19.80;50.00;;;;;;5055188;28;20045;-60
2023/01/28 06:58:56;;;;;;;0.50;0.20;;;19.80;50.00;;;;;;5054342;28;20049;-60
2023/01/28 07:01:21;;;;;;;0.22;0.20;;;19.80;50.00;;;;;;5054811;28;20068;-60
2023/01/28 07:03:47;;;;;;;0.20;0.20;;;19.80;50.00;;;;;;5054792;28;20103;-60
2023/01/28 07:06:12;;;;;;;0.60;0.20;;;19.80;50.00;;;;;;5053116;28;20051;-60
2023/01/28 07:08:38;;;;;;;0.22;0.20;;;19.80;50.00;;;;;;5055109;28;20393;-60
2023/01/28 07:11:04;;;;;;;0.30;0.20;;;19.80;50.00;;;;;;5052588;28;20045;-59
2023/01/28 07:13:30;;;;;;;0.82;0.20;;;19.80;50.00;;;;;;5054740;28;20131;-60
2023/01/28 07:15:55;;;;;;;0.50;0.20;;;19.90;50.00;;;;;;5054092;28;20121;-60
2023/01/28 07:18:22;;;;;;;0.13;0.13;;;19.90;50.00;;;;;;5053083;28;20137;-60
2023/01/28 07:20:47;;;;;;;0.65;0.20;;;19.90;50.00;;;;;;5052825;28;20136;-60
2023/01/28 07:23:13;;;;;;;0.60;0.25;;;19.90;50.00;;;;;;5053147;28;20047;-60
2023/01/28 07:25:38;;;;;;;0.20;0.20;;;19.90;50.00;;;;;;5052926;28;20049;-59
2023/01/28 07:28:04;;;;;;;0.20;0.20;;;19.90;50.00;;;;;;5054400;28;20049;-60
2023/01/28 07:30:30;;;;;;;0.30;0.20;;;19.90;49.90;;;;;;5054173;28;20069;-60
2023/01/28 07:32:56;;;;;;;0.32;0.20;;;19.90;49.90;;;;;;5053382;28;20072;-60
2023/01/28 07:35:21;;;;;;;0.88;0.25;;;19.90;49.90;;;;;;5053094;28;20037;-60
2023/01/28 07:37:52;;;;;;;0.20;0.20;;;19.90;49.90;;;;;;5053008;28;20087;-60
2023/01/28 07:40:18;;;;;;;0.50;0.30;;;19.90;49.90;;;;;;5053390;28;20052;-59
2023/01/28 07:42:43;;;;;;;0.20;0.20;;;19.90;49.90;;;;;;5054053;28;20037;-60
2023/01/28 07:45:09;;;;;;;0.47;0.22;;;19.90;49.90;;;;;;5052480;28;20045;-59
2023/01/28 07:47:35;;;;;;;0.57;0.30;;;19.90;50.00;;;;;;5052721;28;20076;-59
2023/01/28 07:50:00;;;;;;;0.20;0.20;;;19.90;49.90;;;;;;5053603;28;20103;-60
2023/01/28 07:52:26;;;;;;;2.40;0.43;;;19.90;50.60;;;;;;5053979;28;20514;-59
2023/01/28 07:54:51;;;;;;;2.05;0.57;;;19.90;49.90;;;;;;5052951;28;20041;-60
2023/01/28 07:57:22;;;;;;;2.05;0.40;;;19.90;49.90;;;;;;5052659;28;20041;-59
2023/01/28 07:59:50;;;;;;;2.72;0.30;;;19.90;50.00;;;;;;5053150;28;20084;-60
2023/01/28 08:02:16;;;;;;;1.20;0.30;;;19.90;50.00;;;;;;5052868;28;20458;-60
2023/01/28 08:04:42;;;;;;;0.82;0.32;;;19.90;50.00;;;;;;5053433;28;20037;-60
2023/01/28 08:07:08;;;;;;;3.47;0.38;;;19.90;50.00;;;;;;5067483;28;20083;-60
2023/01/28 08:09:33;;;;;;;4.18;0.52;;;19.90;50.00;;;;;;5052804;28;20048;-60
2023/01/28 08:12:01;;;;;;;1.52;0.30;;;19.90;50.00;;;;;;5052264;28;20102;-60
2023/01/28 08:14:26;;;;;;;1.43;0.30;;;19.90;50.10;;;;;;5052143;28;20087;-60
2023/01/28 08:16:52;;;;;;;1.50;0.30;;;19.90;50.10;;;;;;5051218;28;20493;-60
2023/01/28 08:19:20;;;;;;;0.52;0.40;;;19.90;50.20;;;;;;5052513;28;20053;-59
2023/01/28 08:21:46;;;;;;;2.17;0.40;;;19.90;50.30;;;;;;5052130;28;20044;-59
2023/01/28 08:24:12;;;;;;;2.65;0.20;;;20.00;50.50;;;;;;5051294;28;20055;-59
2023/01/28 08:26:37;;;;;;;0.82;0.30;;;20.00;50.50;;;;;;5052406;28;20041;-59
2023/01/28 08:29:04;;;;;;;1.88;0.30;;;20.00;50.70;;;;;;5051506;28;20051;-59
2023/01/28 08:31:29;;;;;;;1.52;0.38;;;20.00;50.80;;;;;;5052288;28;20103;-59
2023/01/28 08:33:55;;;;;;;0.25;0.20;;;20.00;50.90;;;;;;5048740;28;20106;-59
2023/01/28 08:36:20;;;;;;;2.60;0.40;;;20.00;51.00;;;;;;5031927;28;20041;-60
2023/01/28 08:38:46;;;;;;;2.50;0.40;;;20.10;51.20;;;;;;5032827;28;20033;-60
2023/01/28 08:41:11;;;;;;;1.73;0.30;;;20.10;51.40;;;;;;5030361;28;20053;-61
2023/01/28 08:43:37;;;;;;;1.92;0.30;;;20.10;51.50;;;;;;5031412;28;20120;-60
2023/01/28 08:46:05;;;;;;;3.03;0.40;;;20.10;51.60;;;;;;5031844;28;20053;-62
2023/01/28 08:48:31;;;;;;;0.98;0.30;;;20.10;51.70;;;;;;5035965;28;20102;-62
2023/01/28 08:50:57;;;;;;;0.63;0.30;;;20.10;51.80;;;;;;5050935;28;20044;-62
2023/01/28 08:53:23;;;;;;;3.25;0.45;;;20.10;51.90;;;;;;5050803;28;20373;-62
2023/01/28 08:55:48;;;;;;;0.47;0.30;;;20.10;51.90;;;;;;5051172;28;20048;-61
2023/01/28 08:58:15;;;;;;;4.00;0.40;;;20.10;52.00;;;;;;5051524;28;20551;-61
2023/01/28 09:00:41;;;;;;;1.23;0.20;;;20.20;52.10;;;;;;5052634;28;20115;-61
2023/01/28 09:03:07;;;;;;;1.35;0.35;;;20.20;52.00;;;;;;5067305;28;20147;-60
2023/01/28 09:05:36;;;;;;;2.92;0.55;;;20.20;52.10;;;;;;5050133;28;20048;-59
2023/01/28 09:08:12;;;;;;;3.47;0.30;;;20.20;52.20;;;;;;5066942;28;20041;-60
2023/01/28 09:10:38;;;;;;;2.00;0.40;;;20.20;52.30;;;;;;5050102;28;20045;-60
2023/01/28 09:13:08;;;;;;;3.42;0.40;;;20.20;52.30;;;;;;5051812;28;20048;-60
2023/01/28 09:15:34;;;;;;;4.07;0.30;;;20.20;52.30;;;;;;5052002;28;20559;-60
2023/01/28 09:17:59;;;;;;;4.22;0.40;;;20.20;52.20;;;;;;5049520;28;20056;-61
2023/01/28 09:20:25;;;;;;;3.22;0.70;;;20.20;52.30;;;;;;5051863;28;20065;-61
2023/01/28 09:22:51;;;;;;;1.23;0.40;;;20.20;52.20;;;;;;5051655;28;20083;-60
2023/01/28 09:25:16;;;;;;;0.35;0.30;;;20.20;52.20;;;;;;5051037;28;20045;-61
2023/01/28 09:27:42;;;;;;;1.55;0.30;;;20.20;52.20;;;;;;5052089;28;20535;-61
2023/01/28 09:30:09;;;;;;;0.38;0.30;;;20.30;52.30;;;;;;5051533;28;20048;-61
2023/01/28 09:32:35;;;;;;;0.80;0.30;;;20.30;52.40;;;;;;5050984;28;20080;-61
2023/01/28 09:35:00;;;;;;;2.75;0.40;;;20.20;52.20;;;;;;5051631;28;20068;-62
2023/01/28 09:37:26;;;;;;;1.70;0.30;;;20.30;52.30;;;;;;5051690;28;20951;-62
2023/01/28 09:39:51;;;;;;;1.05;0.30;;;20.30;52.30;;;;;;5050616;28;20124;-62
2023/01/28 09:42:23;;;;;;;2.85;0.60;;;20.30;52.40;;;;;;5051072;28;20037;-62
2023/01/28 09:45:06;;;;;;;1.40;0.40;;;20.30;52.20;;;;;;5051716;28;20121;-62
2023/01/28 09:47:38;;;;;;;2.20;0.60;;;20.30;52.20;;;;;;5049682;28;20044;-63
2023/01/28 09:50:29;;;;;;;0.65;0.30;;;20.30;52.20;;;;;;5049833;28;20568;-61
2023/01/28 09:52:56;;;;;;;3.08;0.40;;;20.30;52.20;;;;;;5044609;28;20084;-60
2023/01/28 09:55:29;;;;;;;2.75;0.40;;;20.30;52.30;;;;;;5049872;28;20072;-61
2023/01/28 09:57:55;;;;;;;0.82;0.40;;;20.20;52.30;;;;;;5050186;28;20037;-61
2023/01/28 10:00:48;;;;;;;1.65;0.40;;;20.20;52.30;;;;;;5049520;28;20051;-60
2023/01/28 10:03:25;;;;;;;2.35;0.40;;;20.20;52.30;;;;;;5031756;28;20060;-60
2023/01/28 10:06:15;;;;;;;2.37;0.40;;;20.20;52.40;;;;;;5051090;28;20098;-61
2023/01/28 10:09:20;;;;;;;2.20;0.45;;;20.20;52.30;;;;;;5049107;28;20048;-62
2023/01/28 10:12:00;;;;;;;2.45;0.60;;;20.20;52.40;;;;;;5050426;28;20041;-61
2023/01/28 10:14:35;;;;;;;2.33;0.50;;;20.20;52.50;;;;;;5050031;28;20072;-62
2023/01/28 10:17:19;;;;;;;4.20;0.50;;;20.20;52.50;;;;;;5050075;28;20103;-61
2023/01/28 10:19:56;;;;;;;1.27;0.35;;;20.10;52.50;;;;;;5050395;28;20041;-61
2023/01/28 10:22:28;;;;;;;1.23;0.40;;;20.10;52.50;;;;;;5049212;28;20850;-62
2023/01/28 10:24:57;;;;;;;1.55;0.47;;;20.10;52.50;;;;;;5033049;28;20303;-59
2023/01/28 10:27:23;;;;;;;0.75;0.40;;;20.10;52.50;;;;;;5050797;28;20086;-60
2023/01/28 10:29:49;;;;;;;3.13;0.43;;;20.10;52.40;;;;;;5037182;28;20095;-60
2023/01/28 10:32:34;;;;;;;1.55;0.60;;;20.10;52.30;;;;;;5051080;28;20505;-59
2023/01/28 10:35:03;;;;;;;1.90;0.38;;;20.10;52.20;;;;;;5049692;28;20088;-60
2023/01/28 10:37:32;;;;;;;2.30;0.50;;;20.10;52.30;;;;;;5049611;28;20033;-60
2023/01/28 10:39:58;;;;;;;3.25;0.70;;;20.10;52.20;;;;;;5049314;28;20048;-59
2023/01/28 10:42:31;;;;;;;1.10;0.50;;;20.10;52.10;;;;;;5048908;28;20033;-59
2023/01/28 10:45:01;;;;;;;1.90;0.52;;;20.10;52.10;;;;;;5050935;28;20094;-61
2023/01/28 10:47:46;;;;;;;1.40;0.40;;;20.00;52.10;;;;;;5049548;28;20049;-61
2023/01/28 10:50:22;;;;;;;2.20;0.50;;;20.00;52.10;;;;;;5048940;28;20041;-61
2023/01/28 10:53:01;;;;;;;2.00;0.50;;;20.00;52.20;;;;;;5050436;28;20052;-60
2023/01/28 10:55:33;;;;;;;2.78;0.50;;;20.00;52.30;;;;;;5054046;28;20040;-61
2023/01/28 10:57:59;;;;;;;2.50;0.50;;;20.00;53.10;;;;;;5052087;28;20056;-61
2023/01/28 11:00:27;;;;;;;1.52;0.60;;;20.00;52.40;;;;;;5053037;28;20045;-60
2023/01/28 11:02:53;;;;;;;1.25;0.43;;;20.00;52.50;;;;;;5035919;28;20095;-62
2023/01/28 11:05:21;;;;;;;1.40;0.65;;;20.00;52.50;;;;;;5052680;28;20053;-65
2023/01/28 11:07:48;;;;;;;1.40;0.57;;;20.00;52.60;;;;;;5053932;28;20457;-61
2023/01/28 11:10:31;;;;;;;1.58;0.40;;;20.00;52.60;;;;;;5052494;28;20047;-61
2023/01/28 11:12:58;;;;;;;1.73;0.40;;;20.00;52.60;;;;;;5053927;28;20044;-60
2023/01/28 11:15:23;;;;;;;2.28;0.50;;;19.90;52.60;;;;;;5053971;28;20053;-60
2023/01/28 11:17:54;;;;;;;2.13;0.43;;;19.90;52.70;;;;;;5052823;28;20110;-59
2023/01/28 11:20:21;;;;;;;0.75;0.50;;;19.90;52.60;;;;;;5054042;28;20443;-60
2023/01/28 11:22:47;;;;;;;1.95;0.80;;;19.90;52.40;;;;;;5054065;28;20044;-60
2023/01/28 11:25:19;;;;;;;2.33;0.82;;;19.90;52.10;;;;;;5053174;28;20116;-60
2023/01/28 11:27:48;;;;;;;2.50;0.70;;;19.90;51.80;;;;;;5052371;28;20445;-59
2023/01/28 11:30:21;;;;;;;1.67;0.65;;;19.90;51.60;;;;;;5052964;28;20040;-60
2023/01/28 11:32:59;;;;;;;4.78;1.15;;;19.90;51.30;;;;;;5052682;28;20048;-61
2023/01/28 11:35:29;;;;;;;1.92;0.60;;;19.80;51.20;;;;;;5053892;28;20041;-61
2023/01/28 11:37:59;;;;;;;3.42;0.70;;;19.90;51.40;;;;;;5043497;28;20120;-61
2023/01/28 11:40:25;;;;;;;2.53;0.70;;;19.90;51.60;;;;;;5032186;28;20053;-62
2023/01/28 11:42:51;;;;;;;2.72;0.85;;;19.90;51.60;;;;;;5032564;28;20041;-62
2023/01/28 11:45:18;;;;;;;3.67;0.50;;;19.90;51.70;;;;;;5032051;28;20092;-61
2023/01/28 11:48:30;;;;;;;5.03;0.70;;;19.90;52.00;;;;;;5033158;28;20077;-60
2023/01/28 11:50:59;;;;;;;3.72;0.60;;;19.90;52.00;;;;;;5033347;28;20057;-59
2023/01/28 11:53:31;;;;;;;2.45;0.55;;;19.90;52.10;;;;;;5031881;28;20485;-59
2023/01/28 11:56:00;;;;;;;2.63;0.50;;;19.90;52.00;;;;;;5032975;28;20065;-59
2023/01/28 11:58:41;;;;;;;1.67;0.40;;;19.90;52.10;;;;;;5033016;28;20048;-59
2023/01/28 12:01:07;;;;;;;1.48;0.57;;;19.90;52.10;;;;;;5031934;28;20049;-60
2023/01/28 12:03:40;;;;;;;1.60;0.80;;;19.90;52.10;;;;;;5032548;28;20065;-60
2023/01/28 12:06:30;;;;;;;1.35;0.50;;;19.90;52.20;;;;;;5033405;28;20068;-58
2023/01/28 12:09:07;;;;;;;1.88;0.75;;;19.90;52.20;;;;;;5016226;28;20056;-57
2023/01/28 12:15:23;;;;;;;3.83;0.70;;;19.90;52.20;;;;;;4996158;28;20099;-61
2023/01/28 12:18:12;;;;;;;2.35;0.50;;;19.80;52.20;;;;;;5051955;28;20048;-60
2023/01/28 12:21:08;;;;;;;2.72;0.60;;;19.90;52.20;;;;;;5051834;28;20053;-59
2023/01/28 12:23:52;;;;;;;2.88;0.63;;;19.90;52.40;;;;;;5044633;28;20052;-59
2023/01/28 12:26:34;;;;;;;1.15;0.50;;;19.90;52.50;;;;;;5047794;28;20151;-61
2023/01/28 12:29:17;;;;;;;1.95;0.60;;;19.90;52.60;;;;;;5046908;28;20044;-62
2023/01/28 12:31:47;;;;;;;1.98;0.60;;;19.90;52.70;;;;;;5044714;28;20041;-62
2023/01/28 12:34:40;;;;;;;4.38;0.65;;;19.90;52.60;;;;;;5052246;28;20168;-62
2023/01/28 12:37:42;;;;;;;1.40;0.57;;;19.90;52.60;;;;;;5052600;28;20052;-62
2023/01/28 12:40:31;;;;;;;3.08;0.73;;;19.90;52.70;;;;;;5052767;28;20049;-62
2023/01/28 12:43:04;;;;;;;3.30;0.60;;;19.90;52.80;;;;;;5049781;28;20064;-62
2023/01/28 12:45:44;;;;;;;3.35;0.43;;;19.90;52.70;;;;;;5051669;28;20059;-62
2023/01/28 12:48:17;;;;;;;2.47;0.52;;;19.90;52.70;;;;;;5051541;28;20068;-61
2023/01/28 12:50:51;;;;;;;1.85;0.40;;;19.90;52.80;;;;;;5050929;28;20400;-61
2023/01/28 12:53:23;;;;;;;0.60;0.40;;;19.90;52.70;;;;;;5051371;28;20408;-61
2023/01/28 12:55:53;;;;;;;3.28;0.80;;;20.00;52.70;;;;;;5067289;28;20536;-61
2023/01/28 12:58:28;;;;;;;2.28;0.68;;;20.00;52.70;;;;;;5051761;28;20056;-60
2023/01/28 13:00:55;;;;;;;2.60;0.73;;;20.00;52.90;;;;;;5051316;28;20040;-61
2023/01/28 13:03:29;;;;;;;5.10;0.90;;;20.00;53.00;;;;;;5050815;28;20394;-62
2023/01/28 13:06:00;;;;;;;5.97;1.08;;;20.00;53.00;;;;;;5051034;28;20041;-61
2023/01/28 13:08:26;;;;;;;3.45;0.88;;;20.00;53.10;;;;;;5051568;28;20056;-61
2023/01/28 13:10:53;;;;;;;3.90;1.30;;;20.00;53.20;;;;;;5050518;28;20124;-62
2023/01/28 13:13:24;;;;;;;5.03;0.88;;;20.00;53.30;;;;;;5051227;28;20408;-61
2023/01/28 13:15:50;;;;;;;2.47;0.63;;;20.00;53.50;;;;;;5051946;28;20093;-62
2023/01/28 13:18:47;;;;;;;3.38;0.95;;;20.00;53.50;;;;;;5050004;28;20468;-62
2023/01/28 13:21:33;;;;;;;4.20;1.00;;;20.00;53.50;;;;;;5051285;28;20053;-61
2023/01/28 13:24:04;;;;;;;4.57;0.90;;;20.00;53.50;;;;;;5051292;28;20041;-62
2023/01/28 13:26:50;;;;;;;5.00;0.93;;;20.10;53.50;;;;;;5051895;28;20812;-62
2023/01/28 13:29:29;;;;;;;2.80;1.08;;;20.10;53.80;;;;;;5050918;28;20033;-62
2023/01/28 13:31:56;;;;;;;2.92;0.75;;;20.10;53.80;;;;;;5049690;28;20041;-62
2023/01/28 13:34:35;;;;;;;3.67;0.98;;;20.10;53.90;;;;;;5050274;28;20427;-62
2023/01/28 13:37:22;;;;;;;2.42;1.08;;;20.10;54.00;;;;;;5051545;28;20052;-62
2023/01/28 13:39:58;;;;;;;3.00;0.85;;;20.10;54.00;;;;;;5048956;28;20044;-62
2023/01/28 13:42:26;;;;;;;3.78;0.80;;;20.20;54.00;;;;;;5047986;28;20123;-62